Florence, Minnesota
Current Conditions -  °F | °C
As of 10:54 PM on Saturday 22 Nov 2014 (Local Time) from KPQN Reporting Station
Scattered Clouds Scattered Clouds  
Wind Chill: 33°   Ceiling: Unl
Heat Index: 41°   Visibility: 7mi
Dew Point: 37°   Wind: 16mph
Humidity: 87%   Direction: 210°SSW
Pressure: 29.44"   Gusts: NA
Location:  44.1777°N, 96.0531°W
Report Text: KPQN 230454Z AUTO 21014KT 7SM SCT090 05/03 A2944 RMK AO2
Loading
Personal Weather Stations






























Interactive Weather Map New forecast layout! Learn more

10-Day Weather Forecast

Advertisements
Track Severe Weather on mobile